sensor_id;sensor_type;location;lat;lon;timestamp;temperature;humidity
74513;DHT22;62992;52.052;8.550;2023-05-03T00:01:35;5.80;99.90
74513;DHT22;62992;52.052;8.550;2023-05-03T00:04:20;5.70;99.90
74513;DHT22;62992;52.052;8.550;2023-05-03T00:07:06;5.70;99.90
74513;DHT22;62992;52.052;8.550;2023-05-03T00:09:51;5.60;99.90
74513;DHT22;62992;52.052;8.550;2023-05-03T00:12:37;5.60;99.90
74513;DHT22;62992;52.052;8.550;2023-05-03T00:15:22;5.50;99.90
74513;DHT22;62992;52.052;8.550;2023-05-03T00:18:06;5.50;99.90
74513;DHT22;62992;52.052;8.550;2023-05-03T00:20:51;5.50;99.90
74513;DHT22;62992;52.052;8.550;2023-05-03T00:23:37;5.40;99.90
74513;DHT22;62992;52.052;8.550;2023-05-03T00:26:21;5.40;99.90
74513;DHT22;62992;52.052;8.550;2023-05-03T00:29:06;5.40;99.90
74513;DHT22;62992;52.052;8.550;2023-05-03T00:31:50;5.40;99.90
74513;DHT22;62992;52.052;8.550;2023-05-03T00:34:35;5.40;99.90
74513;DHT22;62992;52.052;8.550;2023-05-03T00:37:20;5.30;99.90
74513;DHT22;62992;52.052;8.550;2023-05-03T00:40:04;5.30;99.90
74513;DHT22;62992;52.052;8.550;2023-05-03T00:42:50;5.20;99.90
74513;DHT22;62992;52.052;8.550;2023-05-03T00:45:34;5.20;99.90
74513;DHT22;62992;52.052;8.550;2023-05-03T00:48:19;5.10;99.90
74513;DHT22;62992;52.052;8.550;2023-05-03T00:51:04;5.10;99.90
74513;DHT22;62992;52.052;8.550;2023-05-03T00:53:49;5.10;99.90
74513;DHT22;62992;52.052;8.550;2023-05-03T00:56:34;5.00;99.90
74513;DHT22;62992;52.052;8.550;2023-05-03T00:59:19;5.00;99.90
74513;DHT22;62992;52.052;8.550;2023-05-03T01:02:03;4.90;99.90
74513;DHT22;62992;52.052;8.550;2023-05-03T01:04:47;4.90;99.90
74513;DHT22;62992;52.052;8.550;2023-05-03T01:08:12;4.80;99.90
74513;DHT22;62992;52.052;8.550;2023-05-03T01:11:04;4.70;99.90
74513;DHT22;62992;52.052;8.550;2023-05-03T01:13:59;4.70;99.90
74513;DHT22;62992;52.052;8.550;2023-05-03T01:16:48;4.70;99.90
74513;DHT22;62992;52.052;8.550;2023-05-03T01:19:35;4.60;99.90
74513;DHT22;62992;52.052;8.550;2023-05-03T01:22:24;4.60;99.90
74513;DHT22;62992;52.052;8.550;2023-05-03T01:25:11;4.60;99.90
74513;DHT22;62992;52.052;8.550;2023-05-03T01:27:55;4.60;99.90
74513;DHT22;62992;52.052;8.550;2023-05-03T01:30:40;4.60;99.90
74513;DHT22;62992;52.052;8.550;2023-05-03T01:33:35;4.50;99.90
74513;DHT22;62992;52.052;8.550;2023-05-03T01:36:31;4.50;99.90
74513;DHT22;62992;52.052;8.550;2023-05-03T01:39:26;4.50;99.90
74513;DHT22;62992;52.052;8.550;2023-05-03T01:42:12;4.40;99.90
74513;DHT22;62992;52.052;8.550;2023-05-03T01:44:57;4.30;99.90
74513;DHT22;62992;52.052;8.550;2023-05-03T01:47:42;4.30;99.90
74513;DHT22;62992;52.052;8.550;2023-05-03T01:50:27;4.30;99.90
74513;DHT22;62992;52.052;8.550;2023-05-03T01:53:11;4.30;99.90
74513;DHT22;62992;52.052;8.550;2023-05-03T01:55:55;4.30;99.90
74513;DHT22;62992;52.052;8.550;2023-05-03T01:58:39;4.10;99.90
74513;DHT22;62992;52.052;8.550;2023-05-03T02:01:23;4.10;99.90
74513;DHT22;62992;52.052;8.550;2023-05-03T02:04:08;4.10;99.90
74513;DHT22;62992;52.052;8.550;2023-05-03T02:06:52;4.10;99.90
74513;DHT22;62992;52.052;8.550;2023-05-03T02:09:36;4.10;99.90
74513;DHT22;62992;52.052;8.550;2023-05-03T02:12:20;4.10;99.90
74513;DHT22;62992;52.052;8.550;2023-05-03T02:15:05;4.10;99.90
74513;DHT22;62992;52.052;8.550;2023-05-03T02:17:49;4.10;99.90
74513;DHT22;62992;52.052;8.550;2023-05-03T02:20:34;4.00;99.90
74513;DHT22;62992;52.052;8.550;2023-05-03T02:23:20;3.90;99.90
74513;DHT22;62992;52.052;8.550;2023-05-03T02:26:04;3.90;99.90
74513;DHT22;62992;52.052;8.550;2023-05-03T02:28:49;3.90;99.90
74513;DHT22;62992;52.052;8.550;2023-05-03T02:31:33;3.80;99.90
74513;DHT22;62992;52.052;8.550;2023-05-03T02:34:17;3.80;99.90
74513;DHT22;62992;52.052;8.550;2023-05-03T02:37:01;3.80;99.90
74513;DHT22;62992;52.052;8.550;2023-05-03T02:39:45;3.70;99.90
74513;DHT22;62992;52.052;8.550;2023-05-03T02:42:29;3.70;99.90
74513;DHT22;62992;52.052;8.550;2023-05-03T02:45:13;3.70;99.90
74513;DHT22;62992;52.052;8.550;2023-05-03T02:47:57;3.60;99.90
74513;DHT22;62992;52.052;8.550;2023-05-03T02:50:42;3.60;99.90
74513;DHT22;62992;52.052;8.550;2023-05-03T02:53:26;3.60;99.90
74513;DHT22;62992;52.052;8.550;2023-05-03T02:56:10;3.60;99.90
74513;DHT22;62992;52.052;8.550;2023-05-03T02:58:54;3.50;99.90
74513;DHT22;62992;52.052;8.550;2023-05-03T03:01:38;3.50;99.90
74513;DHT22;62992;52.052;8.550;2023-05-03T03:04:22;3.50;99.90
74513;DHT22;62992;52.052;8.550;2023-05-03T03:07:07;3.50;99.90
74513;DHT22;62992;52.052;8.550;2023-05-03T03:09:51;3.50;99.90
74513;DHT22;62992;52.052;8.550;2023-05-03T03:12:35;3.50;99.90
74513;DHT22;62992;52.052;8.550;2023-05-03T03:15:20;3.50;99.90
74513;DHT22;62992;52.052;8.550;2023-05-03T03:18:04;3.40;99.90
74513;DHT22;62992;52.052;8.550;2023-05-03T03:20:48;3.40;99.90
74513;DHT22;62992;52.052;8.550;2023-05-03T03:23:33;3.40;99.90
74513;DHT22;62992;52.052;8.550;2023-05-03T03:26:17;3.30;99.90
74513;DHT22;62992;52.052;8.550;2023-05-03T03:29:01;3.30;99.90
74513;DHT22;62992;52.052;8.550;2023-05-03T03:31:45;3.20;99.90
74513;DHT22;62992;52.052;8.550;2023-05-03T03:34:29;3.20;99.90
74513;DHT22;62992;52.052;8.550;2023-05-03T03:37:15;3.20;99.90
74513;DHT22;62992;52.052;8.550;2023-05-03T03:39:59;3.20;99.90
74513;DHT22;62992;52.052;8.550;2023-05-03T03:42:43;3.10;99.90
74513;DHT22;62992;52.052;8.550;2023-05-03T03:45:27;3.10;99.90
74513;DHT22;62992;52.052;8.550;2023-05-03T03:48:11;3.10;99.90
74513;DHT22;62992;52.052;8.550;2023-05-03T03:50:55;3.10;99.90
74513;DHT22;62992;52.052;8.550;2023-05-03T03:53:39;3.10;99.90
74513;DHT22;62992;52.052;8.550;2023-05-03T03:56:23;3.10;99.90
74513;DHT22;62992;52.052;8.550;2023-05-03T03:59:08;3.00;99.90
74513;DHT22;62992;52.052;8.550;2023-05-03T04:01:52;3.00;99.90
74513;DHT22;62992;52.052;8.550;2023-05-03T04:04:36;2.90;99.90
74513;DHT22;62992;52.052;8.550;2023-05-03T04:07:20;3.00;99.90
74513;DHT22;62992;52.052;8.550;2023-05-03T04:10:05;2.90;99.90
74513;DHT22;62992;52.052;8.550;2023-05-03T04:12:49;2.90;99.90
74513;DHT22;62992;52.052;8.550;2023-05-03T04:15:33;3.00;99.90
74513;DHT22;62992;52.052;8.550;2023-05-03T04:18:17;3.00;99.90
74513;DHT22;62992;52.052;8.550;2023-05-03T04:21:01;3.00;99.90
74513;DHT22;62992;52.052;8.550;2023-05-03T04:23:45;3.00;99.90
74513;DHT22;62992;52.052;8.550;2023-05-03T04:26:29;3.00;99.90
74513;DHT22;62992;52.052;8.550;2023-05-03T04:29:13;3.10;99.90
74513;DHT22;62992;52.052;8.550;2023-05-03T04:31:58;3.10;99.90
74513;DHT22;62992;52.052;8.550;2023-05-03T04:34:44;3.20;99.90
74513;DHT22;62992;52.052;8.550;2023-05-03T04:37:29;3.20;99.90
74513;DHT22;62992;52.052;8.550;2023-05-03T04:40:13;3.20;99.90
74513;DHT22;62992;52.052;8.550;2023-05-03T04:42:59;3.20;99.90
74513;DHT22;62992;52.052;8.550;2023-05-03T04:45:44;3.30;99.90
74513;DHT22;62992;52.052;8.550;2023-05-03T04:48:29;3.40;99.90
74513;DHT22;62992;52.052;8.550;2023-05-03T04:51:13;3.40;99.90
74513;DHT22;62992;52.052;8.550;2023-05-03T04:53:58;3.50;99.90
74513;DHT22;62992;52.052;8.550;2023-05-03T04:56:42;3.60;99.90
74513;DHT22;62992;52.052;8.550;2023-05-03T04:59:26;3.70;99.90
74513;DHT22;62992;52.052;8.550;2023-05-03T05:02:10;3.80;99.90
74513;DHT22;62992;52.052;8.550;2023-05-03T05:04:54;3.90;99.90
74513;DHT22;62992;52.052;8.550;2023-05-03T05:07:38;3.90;99.90
74513;DHT22;62992;52.052;8.550;2023-05-03T05:10:22;4.00;99.90
74513;DHT22;62992;52.052;8.550;2023-05-03T05:13:07;4.10;99.90
74513;DHT22;62992;52.052;8.550;2023-05-03T05:15:51;4.20;99.90
74513;DHT22;62992;52.052;8.550;2023-05-03T05:18:35;4.20;99.90
74513;DHT22;62992;52.052;8.550;2023-05-03T05:21:19;4.30;99.90
74513;DHT22;62992;52.052;8.550;2023-05-03T05:24:03;4.40;99.90
74513;DHT22;62992;52.052;8.550;2023-05-03T05:26:47;4.30;99.90
74513;DHT22;62992;52.052;8.550;2023-05-03T05:29:32;4.60;99.90
74513;DHT22;62992;52.052;8.550;2023-05-03T05:32:15;4.80;99.90
74513;DHT22;62992;52.052;8.550;2023-05-03T05:35:00;4.90;99.90
74513;DHT22;62992;52.052;8.550;2023-05-03T05:37:44;5.40;99.90
74513;DHT22;62992;52.052;8.550;2023-05-03T05:40:29;8.20;99.90
74513;DHT22;62992;52.052;8.550;2023-05-03T05:43:13;9.60;99.90
74513;DHT22;62992;52.052;8.550;2023-05-03T05:45:57;11.40;99.90
74513;DHT22;62992;52.052;8.550;2023-05-03T05:48:41;13.10;99.90
74513;DHT22;62992;52.052;8.550;2023-05-03T05:51:26;13.90;99.90
74513;DHT22;62992;52.052;8.550;2023-05-03T05:54:11;14.50;99.70
74513;DHT22;62992;52.052;8.550;2023-05-03T05:56:55;14.90;98.50
74513;DHT22;62992;52.052;8.550;2023-05-03T05:59:39;15.30;97.80
74513;DHT22;62992;52.052;8.550;2023-05-03T06:02:23;15.60;96.50
74513;DHT22;62992;52.052;8.550;2023-05-03T06:05:09;16.00;96.10
74513;DHT22;62992;52.052;8.550;2023-05-03T06:07:54;16.40;94.40
74513;DHT22;62992;52.052;8.550;2023-05-03T06:10:38;16.30;94.40
74513;DHT22;62992;52.052;8.550;2023-05-03T06:13:22;16.70;94.20
74513;DHT22;62992;52.052;8.550;2023-05-03T06:16:08;17.10;93.80
74513;DHT22;62992;52.052;8.550;2023-05-03T06:18:52;16.80;93.20
74513;DHT22;62992;52.052;8.550;2023-05-03T06:21:37;16.20;94.40
74513;DHT22;62992;52.052;8.550;2023-05-03T06:24:21;17.00;94.30
74513;DHT22;62992;52.052;8.550;2023-05-03T06:27:05;17.70;92.40
74513;DHT22;62992;52.052;8.550;2023-05-03T06:29:49;17.50;91.90
74513;DHT22;62992;52.052;8.550;2023-05-03T06:32:33;17.60;91.30
74513;DHT22;62992;52.052;8.550;2023-05-03T06:35:17;17.90;90.40
74513;DHT22;62992;52.052;8.550;2023-05-03T06:38:03;17.40;91.30
74513;DHT22;62992;52.052;8.550;2023-05-03T06:40:47;16.90;91.60
74513;DHT22;62992;52.052;8.550;2023-05-03T06:43:31;17.00;91.50
74513;DHT22;62992;52.052;8.550;2023-05-03T06:46:15;17.40;91.70
74513;DHT22;62992;52.052;8.550;2023-05-03T06:48:59;14.60;94.40
74513;DHT22;62992;52.052;8.550;2023-05-03T06:51:44;12.00;98.40
74513;DHT22;62992;52.052;8.550;2023-05-03T06:54:28;10.40;99.90
74513;DHT22;62992;52.052;8.550;2023-05-03T06:57:12;9.90;99.90
74513;DHT22;62992;52.052;8.550;2023-05-03T06:59:56;9.40;99.90
74513;DHT22;62992;52.052;8.550;2023-05-03T07:02:41;9.00;99.90
74513;DHT22;62992;52.052;8.550;2023-05-03T07:05:25;8.70;99.90
74513;DHT22;62992;52.052;8.550;2023-05-03T07:08:09;8.70;99.90
74513;DHT22;62992;52.052;8.550;2023-05-03T07:10:53;8.80;99.90
74513;DHT22;62992;52.052;8.550;2023-05-03T07:13:38;9.20;99.90
74513;DHT22;62992;52.052;8.550;2023-05-03T07:16:21;9.00;99.90
74513;DHT22;62992;52.052;8.550;2023-05-03T07:19:08;9.10;99.90
74513;DHT22;62992;52.052;8.550;2023-05-03T07:21:52;10.40;99.90
74513;DHT22;62992;52.052;8.550;2023-05-03T07:24:37;13.50;99.90
74513;DHT22;62992;52.052;8.550;2023-05-03T07:27:21;15.80;95.60
74513;DHT22;62992;52.052;8.550;2023-05-03T07:30:06;16.70;92.50
74513;DHT22;62992;52.052;8.550;2023-05-03T07:32:51;16.60;92.70
74513;DHT22;62992;52.052;8.550;2023-05-03T07:35:35;17.60;90.90
74513;DHT22;62992;52.052;8.550;2023-05-03T07:38:19;18.60;89.90
74513;DHT22;62992;52.052;8.550;2023-05-03T07:41:03;14.00;94.70
74513;DHT22;62992;52.052;8.550;2023-05-03T07:43:48;15.90;92.90
74513;DHT22;62992;52.052;8.550;2023-05-03T07:46:32;17.90;90.10
74513;DHT22;62992;52.052;8.550;2023-05-03T07:49:17;13.90;93.90
74513;DHT22;62992;52.052;8.550;2023-05-03T07:52:01;12.00;98.10
74513;DHT22;62992;52.052;8.550;2023-05-03T07:54:46;13.30;96.70
74513;DHT22;62992;52.052;8.550;2023-05-03T07:57:30;12.00;97.10
74513;DHT22;62992;52.052;8.550;2023-05-03T08:00:15;11.90;98.10
74513;DHT22;62992;52.052;8.550;2023-05-03T08:03:00;16.00;93.20
74513;DHT22;62992;52.052;8.550;2023-05-03T08:05:46;17.80;89.30
74513;DHT22;62992;52.052;8.550;2023-05-03T08:08:31;16.20;90.20
74513;DHT22;62992;52.052;8.550;2023-05-03T08:11:16;17.70;89.70
74513;DHT22;62992;52.052;8.550;2023-05-03T08:14:01;17.00;87.80
74513;DHT22;62992;52.052;8.550;2023-05-03T08:16:45;18.50;86.90
74513;DHT22;62992;52.052;8.550;2023-05-03T08:19:29;18.10;84.40
74513;DHT22;62992;52.052;8.550;2023-05-03T08:22:13;18.80;84.30
74513;DHT22;62992;52.052;8.550;2023-05-03T08:24:59;18.80;83.60
74513;DHT22;62992;52.052;8.550;2023-05-03T08:27:44;18.30;82.70
74513;DHT22;62992;52.052;8.550;2023-05-03T08:30:28;18.20;83.50
74513;DHT22;62992;52.052;8.550;2023-05-03T08:33:13;18.80;84.40
74513;DHT22;62992;52.052;8.550;2023-05-03T08:35:57;19.00;83.40
74513;DHT22;62992;52.052;8.550;2023-05-03T08:38:41;18.60;82.00
74513;DHT22;62992;52.052;8.550;2023-05-03T08:41:29;18.50;82.60
74513;DHT22;62992;52.052;8.550;2023-05-03T08:44:19;19.60;82.60
74513;DHT22;62992;52.052;8.550;2023-05-03T08:47:06;19.60;81.30
74513;DHT22;62992;52.052;8.550;2023-05-03T08:49:52;18.40;83.20
74513;DHT22;62992;52.052;8.550;2023-05-03T08:52:38;16.90;83.50
74513;DHT22;62992;52.052;8.550;2023-05-03T08:55:23;17.00;86.10
74513;DHT22;62992;52.052;8.550;2023-05-03T08:58:07;17.60;86.10
74513;DHT22;62992;52.052;8.550;2023-05-03T09:00:55;18.50;84.50
74513;DHT22;62992;52.052;8.550;2023-05-03T09:03:48;17.80;83.20
74513;DHT22;62992;52.052;8.550;2023-05-03T09:06:33;17.70;84.60
74513;DHT22;62992;52.052;8.550;2023-05-03T09:09:30;17.60;85.60
74513;DHT22;62992;52.052;8.550;2023-05-03T09:12:35;17.00;85.90
74513;DHT22;62992;52.052;8.550;2023-05-03T09:15:22;17.00;87.60
74513;DHT22;62992;52.052;8.550;2023-05-03T09:18:19;17.20;85.00
74513;DHT22;62992;52.052;8.550;2023-05-03T09:21:04;16.70;84.90
74513;DHT22;62992;52.052;8.550;2023-05-03T09:23:48;16.70;85.00
74513;DHT22;62992;52.052;8.550;2023-05-03T09:26:33;16.70;88.80
74513;DHT22;62992;52.052;8.550;2023-05-03T09:29:29;17.50;88.00
74513;DHT22;62992;52.052;8.550;2023-05-03T09:32:13;17.30;85.20
74513;DHT22;62992;52.052;8.550;2023-05-03T09:35:08;16.00;84.10
74513;DHT22;62992;52.052;8.550;2023-05-03T09:37:53;16.10;86.50
74513;DHT22;62992;52.052;8.550;2023-05-03T09:40:45;16.80;85.90
74513;DHT22;62992;52.052;8.550;2023-05-03T09:43:31;16.80;85.60
74513;DHT22;62992;52.052;8.550;2023-05-03T09:46:15;16.30;86.70
74513;DHT22;62992;52.052;8.550;2023-05-03T09:48:59;17.00;87.10
74513;DHT22;62992;52.052;8.550;2023-05-03T09:51:44;18.00;85.90
74513;DHT22;62992;52.052;8.550;2023-05-03T09:54:29;16.90;81.90
74513;DHT22;62992;52.052;8.550;2023-05-03T09:57:18;16.40;84.00
74513;DHT22;62992;52.052;8.550;2023-05-03T10:00:03;16.20;85.50
74513;DHT22;62992;52.052;8.550;2023-05-03T10:02:48;16.80;84.20
74513;DHT22;62992;52.052;8.550;2023-05-03T10:05:42;17.30;84.80
74513;DHT22;62992;52.052;8.550;2023-05-03T10:08:34;16.70;86.90
74513;DHT22;62992;52.052;8.550;2023-05-03T10:11:23;17.10;84.70
74513;DHT22;62992;52.052;8.550;2023-05-03T10:14:08;17.30;84.00
74513;DHT22;62992;52.052;8.550;2023-05-03T10:16:58;16.40;85.80
74513;DHT22;62992;52.052;8.550;2023-05-03T10:19:50;16.60;85.90
74513;DHT22;62992;52.052;8.550;2023-05-03T10:28:53;17.10;87.40
74513;DHT22;62992;52.052;8.550;2023-05-03T10:31:45;16.90;86.00
74513;DHT22;62992;52.052;8.550;2023-05-03T10:34:33;16.40;84.50
74513;DHT22;62992;52.052;8.550;2023-05-03T10:37:18;16.00;86.50
74513;DHT22;62992;52.052;8.550;2023-05-03T10:40:14;15.60;87.40
74513;DHT22;62992;52.052;8.550;2023-05-03T10:42:59;15.80;88.20
74513;DHT22;62992;52.052;8.550;2023-05-03T10:45:43;16.30;88.50
74513;DHT22;62992;52.052;8.550;2023-05-03T10:48:28;17.00;87.80
74513;DHT22;62992;52.052;8.550;2023-05-03T10:54:13;16.50;87.90
74513;DHT22;62992;52.052;8.550;2023-05-03T10:56:58;15.30;89.40
74513;DHT22;62992;52.052;8.550;2023-05-03T10:59:48;16.20;91.60
74513;DHT22;62992;52.052;8.550;2023-05-03T11:02:39;17.10;89.30
74513;DHT22;62992;52.052;8.550;2023-05-03T11:05:26;16.60;87.40
74513;DHT22;62992;52.052;8.550;2023-05-03T11:08:13;16.20;89.00
74513;DHT22;62992;52.052;8.550;2023-05-03T11:10:59;16.80;89.90
74513;DHT22;62992;52.052;8.550;2023-05-03T11:13:43;15.70;89.60
74513;DHT22;62992;52.052;8.550;2023-05-03T11:16:28;16.70;89.90
74513;DHT22;62992;52.052;8.550;2023-05-03T11:19:13;16.60;88.20
74513;DHT22;62992;52.052;8.550;2023-05-03T11:21:58;16.00;88.40
74513;DHT22;62992;52.052;8.550;2023-05-03T11:24:42;15.60;89.00
74513;DHT22;62992;52.052;8.550;2023-05-03T11:27:26;15.90;89.90
74513;DHT22;62992;52.052;8.550;2023-05-03T11:30:10;15.70;88.50
74513;DHT22;62992;52.052;8.550;2023-05-03T11:32:55;15.30;90.70
74513;DHT22;62992;52.052;8.550;2023-05-03T11:35:39;15.80;90.60
74513;DHT22;62992;52.052;8.550;2023-05-03T11:38:25;15.80;90.40
74513;DHT22;62992;52.052;8.550;2023-05-03T11:41:16;15.30;89.20
74513;DHT22;62992;52.052;8.550;2023-05-03T11:44:01;15.70;90.50
74513;DHT22;62992;52.052;8.550;2023-05-03T11:46:47;16.60;88.00
74513;DHT22;62992;52.052;8.550;2023-05-03T11:49:31;16.70;88.60
74513;DHT22;62992;52.052;8.550;2023-05-03T11:52:21;16.00;88.00
74513;DHT22;62992;52.052;8.550;2023-05-03T11:55:06;15.60;89.70
74513;DHT22;62992;52.052;8.550;2023-05-03T11:57:51;15.90;91.10
74513;DHT22;62992;52.052;8.550;2023-05-03T12:00:35;15.80;90.20
74513;DHT22;62992;52.052;8.550;2023-05-03T12:03:23;16.30;90.40
74513;DHT22;62992;52.052;8.550;2023-05-03T12:06:07;16.40;87.10
74513;DHT22;62992;52.052;8.550;2023-05-03T12:08:51;15.90;87.30
74513;DHT22;62992;52.052;8.550;2023-05-03T12:11:40;15.70;89.40
74513;DHT22;62992;52.052;8.550;2023-05-03T12:14:24;16.10;88.30
74513;DHT22;62992;52.052;8.550;2023-05-03T12:17:08;15.60;86.80
74513;DHT22;62992;52.052;8.550;2023-05-03T12:20:21;15.30;88.30
74513;DHT22;62992;52.052;8.550;2023-05-03T12:23:07;14.90;89.30
74513;DHT22;62992;52.052;8.550;2023-05-03T12:25:51;15.10;91.20
74513;DHT22;62992;52.052;8.550;2023-05-03T12:28:36;15.60;92.20
74513;DHT22;62992;52.052;8.550;2023-05-03T12:31:20;16.00;90.60
74513;DHT22;62992;52.052;8.550;2023-05-03T12:34:05;15.90;90.80
74513;DHT22;62992;52.052;8.550;2023-05-03T12:36:50;15.30;90.30
74513;DHT22;62992;52.052;8.550;2023-05-03T12:39:34;15.40;90.40
74513;DHT22;62992;52.052;8.550;2023-05-03T12:42:18;15.90;91.80
74513;DHT22;62992;52.052;8.550;2023-05-03T12:45:03;15.90;90.60
74513;DHT22;62992;52.052;8.550;2023-05-03T12:47:47;15.70;89.60
74513;DHT22;62992;52.052;8.550;2023-05-03T12:50:32;15.70;91.10
74513;DHT22;62992;52.052;8.550;2023-05-03T12:53:16;15.80;90.70
74513;DHT22;62992;52.052;8.550;2023-05-03T12:56:00;15.10;90.50
74513;DHT22;62992;52.052;8.550;2023-05-03T12:58:44;14.90;91.60
74513;DHT22;62992;52.052;8.550;2023-05-03T13:01:32;15.70;91.70
74513;DHT22;62992;52.052;8.550;2023-05-03T13:04:16;15.60;90.30
74513;DHT22;62992;52.052;8.550;2023-05-03T13:07:01;15.70;90.70
74513;DHT22;62992;52.052;8.550;2023-05-03T13:09:46;15.40;90.10
74513;DHT22;62992;52.052;8.550;2023-05-03T13:12:30;15.00;90.80
74513;DHT22;62992;52.052;8.550;2023-05-03T13:15:16;14.80;90.10
74513;DHT22;62992;52.052;8.550;2023-05-03T13:18:01;15.30;91.50
74513;DHT22;62992;52.052;8.550;2023-05-03T13:20:47;15.00;92.00
74513;DHT22;62992;52.052;8.550;2023-05-03T13:23:33;15.10;91.40
74513;DHT22;62992;52.052;8.550;2023-05-03T13:26:17;15.80;93.00
74513;DHT22;62992;52.052;8.550;2023-05-03T13:29:02;15.30;90.90
74513;DHT22;62992;52.052;8.550;2023-05-03T13:31:48;15.10;90.80
74513;DHT22;62992;52.052;8.550;2023-05-03T13:34:32;15.10;90.90
74513;DHT22;62992;52.052;8.550;2023-05-03T13:37:16;14.90;90.60
74513;DHT22;62992;52.052;8.550;2023-05-03T13:40:02;14.50;90.70
74513;DHT22;62992;52.052;8.550;2023-05-03T13:42:47;14.50;90.80
74513;DHT22;62992;52.052;8.550;2023-05-03T13:45:31;15.20;92.40
74513;DHT22;62992;52.052;8.550;2023-05-03T13:48:15;15.70;92.00
74513;DHT22;62992;52.052;8.550;2023-05-03T13:51:09;15.00;90.60
74513;DHT22;62992;52.052;8.550;2023-05-03T13:53:54;15.10;90.70
74513;DHT22;62992;52.052;8.550;2023-05-03T13:56:38;14.90;90.70
74513;DHT22;62992;52.052;8.550;2023-05-03T13:59:23;14.80;91.90
74513;DHT22;62992;52.052;8.550;2023-05-03T14:02:07;15.10;91.50
74513;DHT22;62992;52.052;8.550;2023-05-03T14:04:52;14.90;91.60
74513;DHT22;62992;52.052;8.550;2023-05-03T14:07:37;14.80;92.30
74513;DHT22;62992;52.052;8.550;2023-05-03T14:10:21;14.50;92.20
74513;DHT22;62992;52.052;8.550;2023-05-03T14:13:05;14.70;92.20
74513;DHT22;62992;52.052;8.550;2023-05-03T14:15:50;15.00;91.70
74513;DHT22;62992;52.052;8.550;2023-05-03T14:18:34;15.20;91.80
74513;DHT22;62992;52.052;8.550;2023-05-03T14:21:18;15.00;91.00
74513;DHT22;62992;52.052;8.550;2023-05-03T14:24:03;14.80;91.70
74513;DHT22;62992;52.052;8.550;2023-05-03T14:26:49;14.90;91.80
74513;DHT22;62992;52.052;8.550;2023-05-03T14:29:34;14.80;91.70
74513;DHT22;62992;52.052;8.550;2023-05-03T14:32:20;14.80;91.70
74513;DHT22;62992;52.052;8.550;2023-05-03T14:35:05;15.00;91.90
74513;DHT22;62992;52.052;8.550;2023-05-03T14:37:49;14.90;92.00
74513;DHT22;62992;52.052;8.550;2023-05-03T14:40:33;14.80;91.70
74513;DHT22;62992;52.052;8.550;2023-05-03T14:43:18;14.80;92.10
74513;DHT22;62992;52.052;8.550;2023-05-03T14:46:02;14.90;92.30
74513;DHT22;62992;52.052;8.550;2023-05-03T14:48:47;14.80;91.90
74513;DHT22;62992;52.052;8.550;2023-05-03T14:51:31;14.70;92.60
74513;DHT22;62992;52.052;8.550;2023-05-03T14:54:16;14.90;93.30
74513;DHT22;62992;52.052;8.550;2023-05-03T14:57:02;14.90;92.30
74513;DHT22;62992;52.052;8.550;2023-05-03T14:59:47;14.70;92.20
74513;DHT22;62992;52.052;8.550;2023-05-03T15:02:32;14.60;92.00
74513;DHT22;62992;52.052;8.550;2023-05-03T15:05:16;14.60;92.00
74513;DHT22;62992;52.052;8.550;2023-05-03T15:08:00;14.70;92.20
74513;DHT22;62992;52.052;8.550;2023-05-03T15:10:45;14.90;92.00
74513;DHT22;62992;52.052;8.550;2023-05-03T15:13:30;14.60;91.20
74513;DHT22;62992;52.052;8.550;2023-05-03T15:16:14;14.70;92.20
74513;DHT22;62992;52.052;8.550;2023-05-03T15:18:59;14.60;91.70
74513;DHT22;62992;52.052;8.550;2023-05-03T15:21:49;14.70;92.10
74513;DHT22;62992;52.052;8.550;2023-05-03T15:24:34;14.60;91.10
74513;DHT22;62992;52.052;8.550;2023-05-03T15:27:18;14.40;91.30
74513;DHT22;62992;52.052;8.550;2023-05-03T15:30:03;14.30;91.50
74513;DHT22;62992;52.052;8.550;2023-05-03T15:32:47;14.40;91.50
74513;DHT22;62992;52.052;8.550;2023-05-03T15:35:31;14.30;91.50
74513;DHT22;62992;52.052;8.550;2023-05-03T15:38:16;14.50;91.50
74513;DHT22;62992;52.052;8.550;2023-05-03T15:41:01;14.50;91.50
74513;DHT22;62992;52.052;8.550;2023-05-03T15:43:45;14.60;91.80
74513;DHT22;62992;52.052;8.550;2023-05-03T15:46:30;14.50;91.60
74513;DHT22;62992;52.052;8.550;2023-05-03T15:49:15;14.40;91.60
74513;DHT22;62992;52.052;8.550;2023-05-03T15:51:59;14.50;91.50
74513;DHT22;62992;52.052;8.550;2023-05-03T15:54:43;14.60;91.60
74513;DHT22;62992;52.052;8.550;2023-05-03T15:57:27;14.60;90.60
74513;DHT22;62992;52.052;8.550;2023-05-03T16:00:15;14.50;91.20
74513;DHT22;62992;52.052;8.550;2023-05-03T16:03:00;14.40;91.20
74513;DHT22;62992;52.052;8.550;2023-05-03T16:05:44;14.50;91.70
74513;DHT22;62992;52.052;8.550;2023-05-03T16:08:30;14.60;91.60
74513;DHT22;62992;52.052;8.550;2023-05-03T16:11:13;14.40;91.30
74513;DHT22;62992;52.052;8.550;2023-05-03T16:13:58;14.40;92.20
74513;DHT22;62992;52.052;8.550;2023-05-03T16:16:42;14.40;91.70
74513;DHT22;62992;52.052;8.550;2023-05-03T16:19:28;14.30;92.30
74513;DHT22;62992;52.052;8.550;2023-05-03T16:22:12;14.40;92.10
74513;DHT22;62992;52.052;8.550;2023-05-03T16:24:56;14.50;92.20
74513;DHT22;62992;52.052;8.550;2023-05-03T16:27:41;14.30;91.70
74513;DHT22;62992;52.052;8.550;2023-05-03T16:30:25;14.40;91.60
74513;DHT22;62992;52.052;8.550;2023-05-03T16:33:09;14.30;91.90
74513;DHT22;62992;52.052;8.550;2023-05-03T16:35:54;14.30;92.10
74513;DHT22;62992;52.052;8.550;2023-05-03T16:38:39;14.30;91.70
74513;DHT22;62992;52.052;8.550;2023-05-03T16:41:23;14.30;92.00
74513;DHT22;62992;52.052;8.550;2023-05-03T16:44:07;14.30;91.80
74513;DHT22;62992;52.052;8.550;2023-05-03T16:46:52;14.20;92.20
74513;DHT22;62992;52.052;8.550;2023-05-03T16:49:36;14.20;92.50
74513;DHT22;62992;52.052;8.550;2023-05-03T16:52:20;14.30;92.20
74513;DHT22;62992;52.052;8.550;2023-05-03T16:55:05;14.30;92.80
74513;DHT22;62992;52.052;8.550;2023-05-03T16:57:52;14.30;92.20
74513;DHT22;62992;52.052;8.550;2023-05-03T17:00:36;14.20;92.40
74513;DHT22;62992;52.052;8.550;2023-05-03T17:03:21;14.20;92.20
74513;DHT22;62992;52.052;8.550;2023-05-03T17:06:05;14.10;92.60
74513;DHT22;62992;52.052;8.550;2023-05-03T17:08:49;14.00;93.20
74513;DHT22;62992;52.052;8.550;2023-05-03T17:11:34;14.00;93.00
74513;DHT22;62992;52.052;8.550;2023-05-03T17:14:19;13.90;93.10
74513;DHT22;62992;52.052;8.550;2023-05-03T17:17:03;14.00;93.20
74513;DHT22;62992;52.052;8.550;2023-05-03T17:19:47;14.00;93.30
74513;DHT22;62992;52.052;8.550;2023-05-03T17:22:31;13.90;93.30
74513;DHT22;62992;52.052;8.550;2023-05-03T17:25:16;13.80;94.30
74513;DHT22;62992;52.052;8.550;2023-05-03T17:28:01;13.80;93.40
74513;DHT22;62992;52.052;8.550;2023-05-03T17:30:45;13.80;93.30
74513;DHT22;62992;52.052;8.550;2023-05-03T17:33:29;13.80;93.60
74513;DHT22;62992;52.052;8.550;2023-05-03T17:36:13;13.80;94.00
74513;DHT22;62992;52.052;8.550;2023-05-03T17:38:57;13.70;94.00